sensor_id;sensor_type;location;lat;lon;timestamp;P1;durP1;ratioP1;P2;durP2;ratioP2
23181;SDS011;11759;51.282;6.642;2022-07-04T00:00:06;5.28;;;1.60;;
23181;SDS011;11759;51.282;6.642;2022-07-04T00:02:34;3.67;;;1.63;;
23181;SDS011;11759;51.282;6.642;2022-07-04T00:05:02;1.85;;;1.48;;
23181;SDS011;11759;51.282;6.642;2022-07-04T00:07:29;5.90;;;1.75;;
23181;SDS011;11759;51.282;6.642;2022-07-04T00:09:55;4.32;;;1.90;;
23181;SDS011;11759;51.282;6.642;2022-07-04T00:12:22;5.47;;;1.85;;
23181;SDS011;11759;51.282;6.642;2022-07-04T00:14:49;8.52;;;2.10;;
23181;SDS011;11759;51.282;6.642;2022-07-04T00:17:15;5.30;;;1.90;;
23181;SDS011;11759;51.282;6.642;2022-07-04T00:19:42;5.63;;;1.83;;
23181;SDS011;11759;51.282;6.642;2022-07-04T00:22:08;5.22;;;1.55;;
23181;SDS011;11759;51.282;6.642;2022-07-04T00:24:35;7.28;;;1.80;;
23181;SDS011;11759;51.282;6.642;2022-07-04T00:27:02;5.20;;;1.50;;
23181;SDS011;11759;51.282;6.642;2022-07-04T00:29:28;6.55;;;1.70;;
23181;SDS011;11759;51.282;6.642;2022-07-04T00:31:55;3.83;;;2.00;;
23181;SDS011;11759;51.282;6.642;2022-07-04T00:34:22;4.45;;;2.13;;
23181;SDS011;11759;51.282;6.642;2022-07-04T00:36:48;4.80;;;1.92;;
23181;SDS011;11759;51.282;6.642;2022-07-04T00:39:15;2.72;;;1.50;;
23181;SDS011;11759;51.282;6.642;2022-07-04T00:41:42;3.42;;;1.92;;
23181;SDS011;11759;51.282;6.642;2022-07-04T00:44:10;6.18;;;2.00;;
23181;SDS011;11759;51.282;6.642;2022-07-04T00:46:39;5.13;;;2.33;;
23181;SDS011;11759;51.282;6.642;2022-07-04T00:49:07;5.53;;;2.30;;
23181;SDS011;11759;51.282;6.642;2022-07-04T00:51:34;5.40;;;2.30;;
23181;SDS011;11759;51.282;6.642;2022-07-04T00:54:01;3.60;;;1.90;;
23181;SDS011;11759;51.282;6.642;2022-07-04T00:56:28;6.05;;;2.45;;
23181;SDS011;11759;51.282;6.642;2022-07-04T00:58:55;6.53;;;2.20;;
23181;SDS011;11759;51.282;6.642;2022-07-04T01:01:25;5.95;;;2.38;;
23181;SDS011;11759;51.282;6.642;2022-07-04T01:03:52;5.82;;;2.20;;
23181;SDS011;11759;51.282;6.642;2022-07-04T01:06:19;3.55;;;2.15;;
23181;SDS011;11759;51.282;6.642;2022-07-04T01:08:46;6.35;;;2.33;;
23181;SDS011;11759;51.282;6.642;2022-07-04T01:11:13;5.03;;;2.38;;
23181;SDS011;11759;51.282;6.642;2022-07-04T01:13:40;5.45;;;2.40;;
23181;SDS011;11759;51.282;6.642;2022-07-04T01:16:08;9.02;;;2.50;;
23181;SDS011;11759;51.282;6.642;2022-07-04T01:18:36;5.80;;;2.40;;
23181;SDS011;11759;51.282;6.642;2022-07-04T01:21:04;6.47;;;2.47;;
23181;SDS011;11759;51.282;6.642;2022-07-04T01:23:31;5.97;;;2.38;;
23181;SDS011;11759;51.282;6.642;2022-07-04T01:25:58;4.82;;;2.40;;
23181;SDS011;11759;51.282;6.642;2022-07-04T01:28:25;4.93;;;2.70;;
23181;SDS011;11759;51.282;6.642;2022-07-04T01:30:52;8.60;;;2.60;;
23181;SDS011;11759;51.282;6.642;2022-07-04T01:33:18;2.90;;;2.30;;
23181;SDS011;11759;51.282;6.642;2022-07-04T01:35:46;3.50;;;2.20;;
23181;SDS011;11759;51.282;6.642;2022-07-04T01:38:13;4.13;;;2.20;;
23181;SDS011;11759;51.282;6.642;2022-07-04T01:40:40;5.93;;;2.42;;
23181;SDS011;11759;51.282;6.642;2022-07-04T01:43:07;5.57;;;2.70;;
23181;SDS011;11759;51.282;6.642;2022-07-04T01:45:33;9.35;;;2.50;;
23181;SDS011;11759;51.282;6.642;2022-07-04T01:48:04;9.18;;;2.30;;
23181;SDS011;11759;51.282;6.642;2022-07-04T01:50:34;5.50;;;2.60;;
23181;SDS011;11759;51.282;6.642;2022-07-04T01:53:01;4.22;;;2.38;;
23181;SDS011;11759;51.282;6.642;2022-07-04T01:55:28;3.67;;;2.53;;
23181;SDS011;11759;51.282;6.642;2022-07-04T01:57:56;7.57;;;2.95;;
23181;SDS011;11759;51.282;6.642;2022-07-04T02:00:23;5.25;;;2.78;;
23181;SDS011;11759;51.282;6.642;2022-07-04T02:03:09;8.77;;;3.28;;
23181;SDS011;11759;51.282;6.642;2022-07-04T02:05:36;5.65;;;2.88;;
23181;SDS011;11759;51.282;6.642;2022-07-04T02:08:06;11.65;;;3.50;;
23181;SDS011;11759;51.282;6.642;2022-07-04T02:10:33;7.10;;;3.05;;
23181;SDS011;11759;51.282;6.642;2022-07-04T02:13:00;6.70;;;3.03;;
23181;SDS011;11759;51.282;6.642;2022-07-04T02:15:29;7.28;;;3.30;;
23181;SDS011;11759;51.282;6.642;2022-07-04T02:17:57;8.68;;;3.50;;
23181;SDS011;11759;51.282;6.642;2022-07-04T02:20:25;5.10;;;3.38;;
23181;SDS011;11759;51.282;6.642;2022-07-04T02:22:55;7.95;;;3.50;;
23181;SDS011;11759;51.282;6.642;2022-07-04T02:25:22;5.40;;;3.35;;
23181;SDS011;11759;51.282;6.642;2022-07-04T02:27:53;5.75;;;3.08;;
23181;SDS011;11759;51.282;6.642;2022-07-04T02:30:20;5.53;;;2.92;;
23181;SDS011;11759;51.282;6.642;2022-07-04T02:37:10;7.05;;;3.65;;
23181;SDS011;11759;51.282;6.642;2022-07-04T02:39:37;6.70;;;3.50;;
23181;SDS011;11759;51.282;6.642;2022-07-04T02:42:03;5.40;;;3.47;;
23181;SDS011;11759;51.282;6.642;2022-07-04T02:44:30;10.07;;;3.60;;
23181;SDS011;11759;51.282;6.642;2022-07-04T02:46:57;7.65;;;3.30;;
23181;SDS011;11759;51.282;6.642;2022-07-04T02:49:23;6.30;;;4.28;;
23181;SDS011;11759;51.282;6.642;2022-07-04T02:51:50;6.95;;;3.88;;
23181;SDS011;11759;51.282;6.642;2022-07-04T02:54:16;4.93;;;4.10;;
23181;SDS011;11759;51.282;6.642;2022-07-04T02:56:43;7.43;;;3.65;;
23181;SDS011;11759;51.282;6.642;2022-07-04T02:59:10;11.20;;;4.50;;
23181;SDS011;11759;51.282;6.642;2022-07-04T03:01:36;9.10;;;3.83;;
23181;SDS011;11759;51.282;6.642;2022-07-04T03:04:03;5.38;;;3.42;;
23181;SDS011;11759;51.282;6.642;2022-07-04T03:06:30;9.88;;;4.35;;
23181;SDS011;11759;51.282;6.642;2022-07-04T03:08:57;13.65;;;4.57;;
23181;SDS011;11759;51.282;6.642;2022-07-04T03:11:23;9.40;;;4.15;;
23181;SDS011;11759;51.282;6.642;2022-07-04T03:13:50;9.25;;;4.82;;
23181;SDS011;11759;51.282;6.642;2022-07-04T03:16:16;8.93;;;4.18;;
23181;SDS011;11759;51.282;6.642;2022-07-04T03:18:43;9.13;;;3.80;;
23181;SDS011;11759;51.282;6.642;2022-07-04T03:21:10;12.77;;;3.97;;
23181;SDS011;11759;51.282;6.642;2022-07-04T03:23:38;10.43;;;4.15;;
23181;SDS011;11759;51.282;6.642;2022-07-04T03:26:04;9.00;;;4.35;;
23181;SDS011;11759;51.282;6.642;2022-07-04T03:28:31;12.70;;;4.13;;
23181;SDS011;11759;51.282;6.642;2022-07-04T03:30:58;8.60;;;4.53;;
23181;SDS011;11759;51.282;6.642;2022-07-04T03:33:25;9.90;;;4.25;;
23181;SDS011;11759;51.282;6.642;2022-07-04T03:35:52;9.80;;;4.78;;
23181;SDS011;11759;51.282;6.642;2022-07-04T03:38:18;9.80;;;4.32;;
23181;SDS011;11759;51.282;6.642;2022-07-04T03:40:45;11.30;;;4.43;;
23181;SDS011;11759;51.282;6.642;2022-07-04T03:43:12;8.15;;;5.10;;
23181;SDS011;11759;51.282;6.642;2022-07-04T03:45:38;9.93;;;4.72;;
23181;SDS011;11759;51.282;6.642;2022-07-04T03:48:05;10.35;;;4.80;;
23181;SDS011;11759;51.282;6.642;2022-07-04T03:50:31;9.70;;;4.90;;
23181;SDS011;11759;51.282;6.642;2022-07-04T03:52:58;9.70;;;4.72;;
23181;SDS011;11759;51.282;6.642;2022-07-04T03:55:25;10.63;;;4.72;;
23181;SDS011;11759;51.282;6.642;2022-07-04T03:57:51;11.23;;;5.13;;
23181;SDS011;11759;51.282;6.642;2022-07-04T04:00:18;13.18;;;5.18;;
23181;SDS011;11759;51.282;6.642;2022-07-04T04:02:45;9.05;;;5.38;;
23181;SDS011;11759;51.282;6.642;2022-07-04T04:05:13;13.43;;;4.95;;
23181;SDS011;11759;51.282;6.642;2022-07-04T04:07:55;14.75;;;5.05;;
23181;SDS011;11759;51.282;6.642;2022-07-04T04:10:24;10.93;;;4.80;;
23181;SDS011;11759;51.282;6.642;2022-07-04T04:12:51;8.95;;;4.75;;
23181;SDS011;11759;51.282;6.642;2022-07-04T04:15:18;6.93;;;4.53;;
23181;SDS011;11759;51.282;6.642;2022-07-04T04:17:45;9.48;;;4.47;;
23181;SDS011;11759;51.282;6.642;2022-07-04T04:20:11;11.15;;;4.53;;
23181;SDS011;11759;51.282;6.642;2022-07-04T04:22:38;9.25;;;4.97;;
23181;SDS011;11759;51.282;6.642;2022-07-04T04:25:05;8.23;;;4.53;;
23181;SDS011;11759;51.282;6.642;2022-07-04T04:27:32;14.50;;;4.78;;
23181;SDS011;11759;51.282;6.642;2022-07-04T04:29:58;11.93;;;4.93;;
23181;SDS011;11759;51.282;6.642;2022-07-04T04:32:25;9.55;;;4.60;;
23181;SDS011;11759;51.282;6.642;2022-07-04T04:34:51;15.40;;;5.57;;
23181;SDS011;11759;51.282;6.642;2022-07-04T04:37:18;12.23;;;4.88;;
23181;SDS011;11759;51.282;6.642;2022-07-04T04:39:45;14.13;;;4.68;;
23181;SDS011;11759;51.282;6.642;2022-07-04T04:42:11;8.23;;;4.95;;
23181;SDS011;11759;51.282;6.642;2022-07-04T04:44:38;7.85;;;4.70;;
23181;SDS011;11759;51.282;6.642;2022-07-04T04:47:05;8.68;;;4.80;;
23181;SDS011;11759;51.282;6.642;2022-07-04T04:49:31;11.18;;;4.95;;
23181;SDS011;11759;51.282;6.642;2022-07-04T04:51:58;9.38;;;4.75;;
23181;SDS011;11759;51.282;6.642;2022-07-04T04:54:24;9.60;;;5.13;;
23181;SDS011;11759;51.282;6.642;2022-07-04T04:56:51;9.88;;;4.35;;
23181;SDS011;11759;51.282;6.642;2022-07-04T04:59:18;11.70;;;4.60;;
23181;SDS011;11759;51.282;6.642;2022-07-04T05:01:44;8.27;;;4.70;;
23181;SDS011;11759;51.282;6.642;2022-07-04T05:04:11;10.07;;;4.93;;
23181;SDS011;11759;51.282;6.642;2022-07-04T05:06:40;11.95;;;4.45;;
23181;SDS011;11759;51.282;6.642;2022-07-04T05:09:07;13.05;;;5.50;;
23181;SDS011;11759;51.282;6.642;2022-07-04T05:11:34;9.70;;;4.63;;
23181;SDS011;11759;51.282;6.642;2022-07-04T05:14:01;10.25;;;4.55;;
23181;SDS011;11759;51.282;6.642;2022-07-04T05:16:28;11.32;;;4.82;;
23181;SDS011;11759;51.282;6.642;2022-07-04T05:18:54;9.43;;;4.60;;
23181;SDS011;11759;51.282;6.642;2022-07-04T05:21:21;7.78;;;4.65;;
23181;SDS011;11759;51.282;6.642;2022-07-04T05:23:48;9.98;;;4.80;;
23181;SDS011;11759;51.282;6.642;2022-07-04T05:26:14;11.98;;;4.57;;
23181;SDS011;11759;51.282;6.642;2022-07-04T05:28:41;12.05;;;4.47;;
23181;SDS011;11759;51.282;6.642;2022-07-04T05:31:07;9.93;;;4.90;;
23181;SDS011;11759;51.282;6.642;2022-07-04T05:33:34;10.40;;;5.05;;
23181;SDS011;11759;51.282;6.642;2022-07-04T05:36:01;8.27;;;4.55;;
23181;SDS011;11759;51.282;6.642;2022-07-04T05:38:27;16.75;;;5.40;;
23181;SDS011;11759;51.282;6.642;2022-07-04T05:40:54;9.85;;;4.68;;
23181;SDS011;11759;51.282;6.642;2022-07-04T05:43:22;10.32;;;4.32;;
23181;SDS011;11759;51.282;6.642;2022-07-04T05:45:51;10.77;;;4.57;;
23181;SDS011;11759;51.282;6.642;2022-07-04T05:48:18;18.40;;;4.22;;
23181;SDS011;11759;51.282;6.642;2022-07-04T05:50:45;15.50;;;3.88;;
23181;SDS011;11759;51.282;6.642;2022-07-04T05:53:12;13.98;;;3.88;;
23181;SDS011;11759;51.282;6.642;2022-07-04T05:55:39;8.88;;;3.60;;
23181;SDS011;11759;51.282;6.642;2022-07-04T05:58:06;11.60;;;3.85;;
23181;SDS011;11759;51.282;6.642;2022-07-04T06:00:33;7.93;;;3.45;;
23181;SDS011;11759;51.282;6.642;2022-07-04T06:03:01;9.30;;;3.63;;
23181;SDS011;11759;51.282;6.642;2022-07-04T06:05:27;11.57;;;3.10;;
23181;SDS011;11759;51.282;6.642;2022-07-04T06:07:54;6.43;;;3.28;;
23181;SDS011;11759;51.282;6.642;2022-07-04T06:10:20;8.38;;;3.20;;
23181;SDS011;11759;51.282;6.642;2022-07-04T06:12:47;13.15;;;3.40;;
23181;SDS011;11759;51.282;6.642;2022-07-04T06:15:14;8.20;;;3.30;;
23181;SDS011;11759;51.282;6.642;2022-07-04T06:17:41;8.13;;;3.00;;
23181;SDS011;11759;51.282;6.642;2022-07-04T06:20:08;6.38;;;3.17;;
23181;SDS011;11759;51.282;6.642;2022-07-04T06:22:53;8.95;;;3.33;;
23181;SDS011;11759;51.282;6.642;2022-07-04T06:25:20;8.05;;;3.20;;
23181;SDS011;11759;51.282;6.642;2022-07-04T06:27:48;6.65;;;3.15;;
23181;SDS011;11759;51.282;6.642;2022-07-04T06:30:15;7.97;;;3.30;;
23181;SDS011;11759;51.282;6.642;2022-07-04T06:32:46;12.30;;;3.85;;
23181;SDS011;11759;51.282;6.642;2022-07-04T06:35:14;8.80;;;2.85;;
23181;SDS011;11759;51.282;6.642;2022-07-04T06:38:02;5.32;;;2.58;;
23181;SDS011;11759;51.282;6.642;2022-07-04T06:40:29;5.20;;;2.00;;
23181;SDS011;11759;51.282;6.642;2022-07-04T06:42:56;6.70;;;2.08;;
23181;SDS011;11759;51.282;6.642;2022-07-04T06:45:22;6.53;;;2.13;;
23181;SDS011;11759;51.282;6.642;2022-07-04T06:47:49;5.72;;;1.60;;
23181;SDS011;11759;51.282;6.642;2022-07-04T06:50:17;3.90;;;1.50;;
23181;SDS011;11759;51.282;6.642;2022-07-04T06:53:05;6.10;;;1.90;;
23181;SDS011;11759;51.282;6.642;2022-07-04T06:55:32;7.00;;;2.35;;
23181;SDS011;11759;51.282;6.642;2022-07-04T06:57:59;3.42;;;1.70;;
23181;SDS011;11759;51.282;6.642;2022-07-04T07:00:26;9.40;;;2.10;;
23181;SDS011;11759;51.282;6.642;2022-07-04T07:02:52;10.23;;;1.80;;
23181;SDS011;11759;51.282;6.642;2022-07-04T07:05:19;5.88;;;1.90;;
23181;SDS011;11759;51.282;6.642;2022-07-04T07:08:05;5.60;;;1.60;;
23181;SDS011;11759;51.282;6.642;2022-07-04T07:10:34;6.25;;;1.90;;
23181;SDS011;11759;51.282;6.642;2022-07-04T07:13:02;6.47;;;1.58;;
23181;SDS011;11759;51.282;6.642;2022-07-04T07:15:29;6.13;;;1.85;;
23181;SDS011;11759;51.282;6.642;2022-07-04T07:17:57;4.43;;;1.85;;
23181;SDS011;11759;51.282;6.642;2022-07-04T07:20:26;5.82;;;1.77;;
23181;SDS011;11759;51.282;6.642;2022-07-04T07:22:53;5.53;;;1.45;;
23181;SDS011;11759;51.282;6.642;2022-07-04T07:25:20;5.30;;;1.50;;
23181;SDS011;11759;51.282;6.642;2022-07-04T07:27:46;6.90;;;1.50;;
23181;SDS011;11759;51.282;6.642;2022-07-04T07:30:13;6.38;;;1.60;;
23181;SDS011;11759;51.282;6.642;2022-07-04T07:32:40;6.78;;;2.08;;
23181;SDS011;11759;51.282;6.642;2022-07-04T07:35:06;5.78;;;1.20;;
23181;SDS011;11759;51.282;6.642;2022-07-04T07:37:33;3.63;;;1.30;;
23181;SDS011;11759;51.282;6.642;2022-07-04T07:40:01;5.00;;;0.90;;
23181;SDS011;11759;51.282;6.642;2022-07-04T07:42:28;2.63;;;0.93;;
23181;SDS011;11759;51.282;6.642;2022-07-04T07:44:55;3.58;;;1.10;;
23181;SDS011;11759;51.282;6.642;2022-07-04T07:47:23;2.45;;;0.88;;
23181;SDS011;11759;51.282;6.642;2022-07-04T07:49:50;4.85;;;1.10;;
23181;SDS011;11759;51.282;6.642;2022-07-04T07:52:16;5.03;;;1.00;;
23181;SDS011;11759;51.282;6.642;2022-07-04T07:54:43;5.25;;;1.02;;
23181;SDS011;11759;51.282;6.642;2022-07-04T07:57:25;3.30;;;1.05;;
23181;SDS011;11759;51.282;6.642;2022-07-04T07:59:52;6.70;;;0.90;;
23181;SDS011;11759;51.282;6.642;2022-07-04T08:02:19;4.43;;;0.90;;
23181;SDS011;11759;51.282;6.642;2022-07-04T08:04:45;3.42;;;1.00;;
23181;SDS011;11759;51.282;6.642;2022-07-04T08:07:12;2.30;;;1.05;;
23181;SDS011;11759;51.282;6.642;2022-07-04T08:09:48;5.88;;;1.10;;
23181;SDS011;11759;51.282;6.642;2022-07-04T08:12:15;1.73;;;0.80;;
23181;SDS011;11759;51.282;6.642;2022-07-04T08:14:42;3.30;;;1.00;;
23181;SDS011;11759;51.282;6.642;2022-07-04T08:17:09;4.50;;;1.05;;
23181;SDS011;11759;51.282;6.642;2022-07-04T08:19:37;3.65;;;0.90;;
23181;SDS011;11759;51.282;6.642;2022-07-04T08:22:04;4.75;;;0.93;;
23181;SDS011;11759;51.282;6.642;2022-07-04T08:24:41;4.78;;;1.27;;
23181;SDS011;11759;51.282;6.642;2022-07-04T08:27:08;3.38;;;1.05;;
23181;SDS011;11759;51.282;6.642;2022-07-04T08:29:35;5.45;;;0.90;;
23181;SDS011;11759;51.282;6.642;2022-07-04T08:32:02;3.75;;;0.93;;
23181;SDS011;11759;51.282;6.642;2022-07-04T08:34:29;4.63;;;0.93;;
23181;SDS011;11759;51.282;6.642;2022-07-04T08:36:56;4.93;;;0.85;;
23181;SDS011;11759;51.282;6.642;2022-07-04T08:39:22;6.30;;;1.00;;
23181;SDS011;11759;51.282;6.642;2022-07-04T08:41:49;4.50;;;1.25;;
23181;SDS011;11759;51.282;6.642;2022-07-04T08:44:18;3.00;;;0.90;;
23181;SDS011;11759;51.282;6.642;2022-07-04T08:46:46;4.20;;;1.25;;
23181;SDS011;11759;51.282;6.642;2022-07-04T08:49:23;7.45;;;0.90;;
23181;SDS011;11759;51.282;6.642;2022-07-04T08:54:30;5.22;;;1.15;;
23181;SDS011;11759;51.282;6.642;2022-07-04T08:57:17;7.13;;;1.10;;
23181;SDS011;11759;51.282;6.642;2022-07-04T09:00:03;5.82;;;1.10;;
23181;SDS011;11759;51.282;6.642;2022-07-04T09:02:32;2.30;;;1.02;;
23181;SDS011;11759;51.282;6.642;2022-07-04T09:05:00;4.35;;;1.10;;
23181;SDS011;11759;51.282;6.642;2022-07-04T09:07:27;6.72;;;1.30;;
23181;SDS011;11759;51.282;6.642;2022-07-04T09:09:54;3.65;;;1.30;;
23181;SDS011;11759;51.282;6.642;2022-07-04T09:12:23;4.28;;;1.00;;
23181;SDS011;11759;51.282;6.642;2022-07-04T09:14:50;3.92;;;0.85;;
23181;SDS011;11759;51.282;6.642;2022-07-04T09:17:18;4.97;;;1.00;;
23181;SDS011;11759;51.282;6.642;2022-07-04T09:19:45;4.72;;;0.93;;
23181;SDS011;11759;51.282;6.642;2022-07-04T09:22:12;3.80;;;1.08;;
23181;SDS011;11759;51.282;6.642;2022-07-04T09:24:48;5.65;;;1.02;;
23181;SDS011;11759;51.282;6.642;2022-07-04T09:27:32;3.70;;;1.00;;
23181;SDS011;11759;51.282;6.642;2022-07-04T09:30:01;4.43;;;0.80;;
23181;SDS011;11759;51.282;6.642;2022-07-04T09:35:02;6.30;;;1.05;;
23181;SDS011;11759;51.282;6.642;2022-07-04T09:37:52;2.28;;;0.70;;
23181;SDS011;11759;51.282;6.642;2022-07-04T09:42:48;3.78;;;0.90;;
23181;SDS011;11759;51.282;6.642;2022-07-04T09:45:14;4.78;;;0.73;;
23181;SDS011;11759;51.282;6.642;2022-07-04T09:47:44;3.08;;;1.00;;
23181;SDS011;11759;51.282;6.642;2022-07-04T09:50:18;4.68;;;1.05;;
23181;SDS011;11759;51.282;6.642;2022-07-04T09:52:47;4.55;;;1.17;;
23181;SDS011;11759;51.282;6.642;2022-07-04T09:57:49;5.28;;;1.40;;
23181;SDS011;11759;51.282;6.642;2022-07-04T10:02:47;7.28;;;1.00;;
23181;SDS011;11759;51.282;6.642;2022-07-04T10:05:21;5.13;;;0.82;;
23181;SDS011;11759;51.282;6.642;2022-07-04T10:07:56;6.82;;;0.77;;
23181;SDS011;11759;51.282;6.642;2022-07-04T10:10:24;3.00;;;0.85;;
23181;SDS011;11759;51.282;6.642;2022-07-04T10:12:52;2.75;;;1.17;;
23181;SDS011;11759;51.282;6.642;2022-07-04T10:15:20;4.63;;;0.90;;
23181;SDS011;11759;51.282;6.642;2022-07-04T10:17:49;2.40;;;0.90;;
23181;SDS011;11759;51.282;6.642;2022-07-04T10:20:16;3.97;;;0.90;;
23181;SDS011;11759;51.282;6.642;2022-07-04T10:22:43;5.40;;;0.63;;
23181;SDS011;11759;51.282;6.642;2022-07-04T10:25:09;2.83;;;0.90;;
23181;SDS011;11759;51.282;6.642;2022-07-04T10:27:37;3.10;;;0.93;;
23181;SDS011;11759;51.282;6.642;2022-07-04T10:30:06;3.95;;;1.05;;
23181;SDS011;11759;51.282;6.642;2022-07-04T10:32:36;1.95;;;0.75;;
23181;SDS011;11759;51.282;6.642;2022-07-04T10:35:04;3.78;;;1.00;;
23181;SDS011;11759;51.282;6.642;2022-07-04T10:40:42;3.83;;;1.35;;
23181;SDS011;11759;51.282;6.642;2022-07-04T10:48:36;2.97;;;0.90;;
23181;SDS011;11759;51.282;6.642;2022-07-04T10:59:18;3.78;;;0.70;;
23181;SDS011;11759;51.282;6.642;2022-07-04T11:01:49;2.88;;;1.02;;
23181;SDS011;11759;51.282;6.642;2022-07-04T11:17:57;3.90;;;1.30;;
23181;SDS011;11759;51.282;6.642;2022-07-04T11:20:26;3.15;;;1.05;;
23181;SDS011;11759;51.282;6.642;2022-07-04T11:23:10;6.32;;;1.15;;
23181;SDS011;11759;51.282;6.642;2022-07-04T11:25:39;4.47;;;1.00;;
23181;SDS011;11759;51.282;6.642;2022-07-04T11:28:25;15.00;;;1.40;;
23181;SDS011;11759;51.282;6.642;2022-07-04T11:31:09;2.78;;;0.98;;
23181;SDS011;11759;51.282;6.642;2022-07-04T11:33:37;5.35;;;1.10;;
23181;SDS011;11759;51.282;6.642;2022-07-04T11:36:09;2.65;;;0.90;;
23181;SDS011;11759;51.282;6.642;2022-07-04T11:38:52;6.18;;;0.90;;
23181;SDS011;11759;51.282;6.642;2022-07-04T11:41:36;2.80;;;0.90;;
23181;SDS011;11759;51.282;6.642;2022-07-04T11:44:23;5.47;;;0.70;;
23181;SDS011;11759;51.282;6.642;2022-07-04T11:47:10;4.15;;;0.93;;
23181;SDS011;11759;51.282;6.642;2022-07-04T11:49:42;3.30;;;0.93;;
23181;SDS011;11759;51.282;6.642;2022-07-04T11:52:11;3.28;;;0.93;;
23181;SDS011;11759;51.282;6.642;2022-07-04T11:54:40;4.25;;;0.95;;
23181;SDS011;11759;51.282;6.642;2022-07-04T11:59:53;4.28;;;0.90;;
23181;SDS011;11759;51.282;6.642;2022-07-04T12:02:21;4.75;;;1.00;;
23181;SDS011;11759;51.282;6.642;2022-07-04T12:04:48;5.10;;;0.80;;
23181;SDS011;11759;51.282;6.642;2022-07-04T12:07:15;2.72;;;0.80;;
23181;SDS011;11759;51.282;6.642;2022-07-04T12:09:44;3.15;;;1.10;;
23181;SDS011;11759;51.282;6.642;2022-07-04T12:12:12;4.25;;;0.82;;
23181;SDS011;11759;51.282;6.642;2022-07-04T12:14:40;1.85;;;0.70;;
23181;SDS011;11759;51.282;6.642;2022-07-04T12:19:36;2.15;;;0.77;;
23181;SDS011;11759;51.282;6.642;2022-07-04T12:22:03;2.45;;;0.82;;
23181;SDS011;11759;51.282;6.642;2022-07-04T12:24:42;6.32;;;0.88;;
23181;SDS011;11759;51.282;6.642;2022-07-04T12:27:16;1.85;;;0.73;;
23181;SDS011;11759;51.282;6.642;2022-07-04T12:29:47;2.25;;;0.77;;
23181;SDS011;11759;51.282;6.642;2022-07-04T12:32:15;2.30;;;0.70;;
23181;SDS011;11759;51.282;6.642;2022-07-04T12:34:42;3.08;;;0.60;;
23181;SDS011;11759;51.282;6.642;2022-07-04T12:37:10;3.92;;;0.77;;
23181;SDS011;11759;51.282;6.642;2022-07-04T12:39:38;2.75;;;0.70;;
23181;SDS011;11759;51.282;6.642;2022-07-04T12:44:35;2.42;;;0.60;;
23181;SDS011;11759;51.282;6.642;2022-07-04T12:47:03;1.77;;;1.00;;
23181;SDS011;11759;51.282;6.642;2022-07-04T12:49:42;1.98;;;0.80;;
23181;SDS011;11759;51.282;6.642;2022-07-04T12:52:14;3.50;;;0.80;;
23181;SDS011;11759;51.282;6.642;2022-07-04T12:54:42;10.20;;;1.02;;
23181;SDS011;11759;51.282;6.642;2022-07-04T12:57:15;2.80;;;0.80;;
23181;SDS011;11759;51.282;6.642;2022-07-04T12:59:45;3.42;;;1.02;;
23181;SDS011;11759;51.282;6.642;2022-07-04T13:02:13;2.88;;;0.90;;
23181;SDS011;11759;51.282;6.642;2022-07-04T13:04:40;2.00;;;0.88;;
23181;SDS011;11759;51.282;6.642;2022-07-04T13:07:16;2.67;;;0.95;;
23181;SDS011;11759;51.282;6.642;2022-07-04T13:09:44;3.03;;;0.90;;
23181;SDS011;11759;51.282;6.642;2022-07-04T13:12:12;1.30;;;0.75;;
23181;SDS011;11759;51.282;6.642;2022-07-04T13:14:55;2.72;;;0.90;;
23181;SDS011;11759;51.282;6.642;2022-07-04T13:17:22;2.83;;;0.90;;
23181;SDS011;11759;51.282;6.642;2022-07-04T13:19:50;2.08;;;0.80;;
23181;SDS011;11759;51.282;6.642;2022-07-04T13:22:22;1.50;;;0.77;;
23181;SDS011;11759;51.282;6.642;2022-07-04T13:24:49;3.20;;;1.17;;
23181;SDS011;11759;51.282;6.642;2022-07-04T13:27:17;3.25;;;0.80;;
23181;SDS011;11759;51.282;6.642;2022-07-04T13:29:44;2.92;;;0.80;;
23181;SDS011;11759;51.282;6.642;2022-07-04T13:32:11;2.60;;;0.80;;
23181;SDS011;11759;51.282;6.642;2022-07-04T13:34:38;2.75;;;0.90;;
23181;SDS011;11759;51.282;6.642;2022-07-04T13:37:05;2.00;;;0.90;;
23181;SDS011;11759;51.282;6.642;2022-07-04T13:39:32;5.40;;;1.02;;
23181;SDS011;11759;51.282;6.642;2022-07-04T13:42:15;1.52;;;0.90;;
23181;SDS011;11759;51.282;6.642;2022-07-04T13:45:01;4.85;;;1.10;;
23181;SDS011;11759;51.282;6.642;2022-07-04T13:47:29;2.92;;;0.85;;
23181;SDS011;11759;51.282;6.642;2022-07-04T13:49:56;6.15;;;0.90;;
23181;SDS011;11759;51.282;6.642;2022-07-04T13:52:23;2.30;;;0.88;;
23181;SDS011;11759;51.282;6.642;2022-07-04T13:54:49;2.63;;;1.00;;
23181;SDS011;11759;51.282;6.642;2022-07-04T13:57:16;3.17;;;0.85;;
23181;SDS011;11759;51.282;6.642;2022-07-04T13:59:43;1.10;;;0.80;;
23181;SDS011;11759;51.282;6.642;2022-07-04T14:02:09;3.05;;;0.85;;
23181;SDS011;11759;51.282;6.642;2022-07-04T14:04:36;3.83;;;0.93;;
23181;SDS011;11759;51.282;6.642;2022-07-04T14:07:03;2.53;;;0.90;;
23181;SDS011;11759;51.282;6.642;2022-07-04T14:09:38;2.33;;;0.90;;
23181;SDS011;11759;51.282;6.642;2022-07-04T14:12:05;4.53;;;0.90;;
23181;SDS011;11759;51.282;6.642;2022-07-04T14:14:32;2.42;;;0.90;;
23181;SDS011;11759;51.282;6.642;2022-07-04T14:16:59;2.72;;;0.90;;
23181;SDS011;11759;51.282;6.642;2022-07-04T14:19:46;1.85;;;0.90;;
23181;SDS011;11759;51.282;6.642;2022-07-04T14:22:13;2.65;;;1.00;;
23181;SDS011;11759;51.282;6.642;2022-07-04T14:24:39;2.22;;;1.05;;
23181;SDS011;11759;51.282;6.642;2022-07-04T14:27:06;3.08;;;0.90;;
23181;SDS011;11759;51.282;6.642;2022-07-04T14:29:33;2.13;;;0.73;;
23181;SDS011;11759;51.282;6.642;2022-07-04T14:32:00;2.90;;;0.77;;
23181;SDS011;11759;51.282;6.642;2022-07-04T14:34:27;3.97;;;1.00;;
23181;SDS011;11759;51.282;6.642;2022-07-04T14:36:54;4.55;;;1.00;;
23181;SDS011;11759;51.282;6.642;2022-07-04T14:39:20;3.70;;;0.80;;
23181;SDS011;11759;51.282;6.642;2022-07-04T14:41:47;2.78;;;0.70;;
23181;SDS011;11759;51.282;6.642;2022-07-04T14:44:15;2.92;;;0.85;;
23181;SDS011;11759;51.282;6.642;2022-07-04T14:46:41;2.65;;;0.70;;
23181;SDS011;11759;51.282;6.642;2022-07-04T14:49:09;7.20;;;0.90;;
23181;SDS011;11759;51.282;6.642;2022-07-04T14:51:35;2.60;;;0.77;;
23181;SDS011;11759;51.282;6.642;2022-07-04T14:54:04;1.60;;;0.75;;
23181;SDS011;11759;51.282;6.642;2022-07-04T14:56:31;3.30;;;0.95;;
23181;SDS011;11759;51.282;6.642;2022-07-04T14:58:57;4.93;;;0.70;;
23181;SDS011;11759;51.282;6.642;2022-07-04T15:01:24;2.55;;;0.80;;
23181;SDS011;11759;51.282;6.642;2022-07-04T15:03:51;2.13;;;0.90;;
23181;SDS011;11759;51.282;6.642;2022-07-04T15:06:18;1.38;;;0.70;;
23181;SDS011;11759;51.282;6.642;2022-07-04T15:08:48;0.88;;;0.50;;
23181;SDS011;11759;51.282;6.642;2022-07-04T15:11:15;3.75;;;0.90;;
23181;SDS011;11759;51.282;6.642;2022-07-04T15:16:12;2.38;;;0.98;;
23181;SDS011;11759;51.282;6.642;2022-07-04T15:18:49;2.08;;;1.10;;
23181;SDS011;11759;51.282;6.642;2022-07-04T15:21:17;1.30;;;0.63;;
23181;SDS011;11759;51.282;6.642;2022-07-04T15:24:04;2.92;;;0.80;;
23181;SDS011;11759;51.282;6.642;2022-07-04T15:26:42;2.40;;;0.90;;
23181;SDS011;11759;51.282;6.642;2022-07-04T15:29:10;4.18;;;0.85;;
23181;SDS011;11759;51.282;6.642;2022-07-04T15:31:39;4.63;;;0.70;;
23181;SDS011;11759;51.282;6.642;2022-07-04T15:34:06;2.05;;;0.77;;
23181;SDS011;11759;51.282;6.642;2022-07-04T15:36:33;1.60;;;0.75;;
23181;SDS011;11759;51.282;6.642;2022-07-04T15:39:02;3.08;;;0.90;;
23181;SDS011;11759;51.282;6.642;2022-07-04T15:41:33;3.53;;;1.23;;
23181;SDS011;11759;51.282;6.642;2022-07-04T15:44:00;7.15;;;1.10;;
23181;SDS011;11759;51.282;6.642;2022-07-04T15:46:27;2.33;;;0.80;;
23181;SDS011;11759;51.282;6.642;2022-07-04T15:48:54;4.10;;;0.98;;
23181;SDS011;11759;51.282;6.642;2022-07-04T15:51:21;2.20;;;1.00;;